Time;durP1;ratioP1;P1;durP2;ratioP2;P2;SDS_P1;SDS_P2;PMS_P1;PMS_P2;Temp;Humidity;BMP_temperature;BMP_pressure;BME280_temperature;BME280_humidity;BME280_pressure;Samples;Min_cycle;Max_cycle;Signal;HPM_P1;HPM_P2
2023/04/06 00:03:36;;;;;;;14.10;7.83;;;3.80;58.30;;;;;;20982989;28;20211;-77
2023/04/06 00:13:38;;;;;;;13.90;8.40;;;;;;;;;;20982345;28;20215;-77
2023/04/06 00:23:40;;;;;;;16.90;8.63;;;3.40;59.00;;;;;;20980027;28;20272;-75
2023/04/06 00:33:42;;;;;;;13.80;8.53;;;3.30;58.90;;;;;;20980047;28;20214;-75
2023/04/06 00:43:44;;;;;;;21.83;8.83;;;;;;;;;;20979758;28;20211;-78
2023/04/06 00:53:46;;;;;;;13.23;8.30;;;3.10;59.50;;;;;;20930490;28;20214;-78
2023/04/06 01:03:49;;;;;;;15.60;8.23;;;3.20;59.70;;;;;;20922597;28;20207;-77
2023/04/06 01:13:52;;;;;;;12.87;8.47;;;3.20;59.70;;;;;;20922784;28;20667;-77
2023/04/06 01:23:54;;;;;;;12.97;7.73;;;3.10;60.20;;;;;;20921693;28;20212;-76
2023/04/06 01:33:55;;;;;;;14.17;7.43;;;3.10;60.60;;;;;;20920553;28;20228;-75
2023/04/06 01:43:57;;;;;;;11.73;7.53;;;3.00;61.00;;;;;;20920413;28;20215;-72
2023/04/06 01:53:59;;;;;;;14.87;8.40;;;2.90;61.50;;;;;;20919540;28;20672;-73
2023/04/06 02:04:00;;;;;;;13.43;8.23;;;2.90;64.00;;;;;;20917616;28;20264;-76
2023/04/06 02:14:02;;;;;;;14.33;9.00;;;2.70;62.00;;;;;;20918258;28;20238;-75
2023/04/06 02:24:04;;;;;;;15.37;9.03;;;2.60;62.20;;;;;;20917045;28;20216;-77
2023/04/06 02:34:07;;;;;;;13.43;8.90;;;2.50;62.30;;;;;;20916137;28;20243;-76
2023/04/06 02:44:09;;;;;;;14.57;8.83;;;2.70;62.50;;;;;;20915741;28;20211;-71
2023/04/06 02:54:11;;;;;;;14.53;8.87;;;2.50;62.70;;;;;;20915197;28;20233;-71
2023/04/06 03:04:12;;;;;;;13.33;8.73;;;2.40;63.30;;;;;;20913978;28;20570;-76
2023/04/06 03:14:17;;;;;;;12.60;7.80;;;2.40;63.30;;;;;;20913174;28;20234;-75
2023/04/06 03:24:18;;;;;;;14.97;8.10;;;2.30;63.30;;;;;;20913302;28;20225;-75
2023/04/06 03:34:20;;;;;;;14.93;8.50;;;2.20;64.00;;;;;;20913132;28;20322;-75
2023/04/06 03:44:22;;;;;;;13.57;8.20;;;2.10;64.10;;;;;;20930477;28;20242;-75
2023/04/06 03:54:24;;;;;;;16.70;8.40;;;;;;;;;;20914607;28;20283;-73
2023/04/06 04:04:26;;;;;;;14.03;8.60;;;;;;;;;;20911467;28;20582;-72
2023/04/06 04:15:20;;;;;;;15.43;8.53;;;2.10;64.60;;;;;;21068487;27;20561;-72
2023/04/06 04:25:23;;;;;;;20.33;9.37;;;2.00;65.00;;;;;;21067944;28;20213;-71
2023/04/06 04:35:25;;;;;;;24.23;8.93;;;1.90;65.60;;;;;;21066526;28;20209;-73
2023/04/06 04:45:26;;;;;;;28.43;9.53;;;1.70;65.80;;;;;;21065725;28;20653;-77
2023/04/06 04:55:29;;;;;;;15.40;9.33;;;1.70;65.80;;;;;;21065294;28;20223;-78
2023/04/06 05:05:31;;;;;;;25.30;10.03;;;;;;;;;;21063717;28;20660;-76
2023/04/06 05:15:37;;;;;;;29.17;11.30;;;1.80;66.60;;;;;;21052213;28;20201;-78
2023/04/06 05:25:40;;;;;;;18.60;10.40;;;1.80;67.00;;;;;;21037133;28;20255;-77
2023/04/06 05:35:42;;;;;;;21.77;10.73;;;2.10;67.10;;;;;;21002862;28;20238;-75
2023/04/06 05:45:45;;;;;;;16.47;10.17;;;2.40;67.30;;;;;;20959009;28;20235;-69
2023/04/06 05:55:47;;;;;;;18.03;10.50;;;2.60;67.50;;;;;;20973804;28;20200;-68
2023/04/06 06:05:49;;;;;;;18.80;11.17;;;2.70;67.40;;;;;;20917702;28;20243;-72
2023/04/06 06:15:50;;;;;;;25.27;11.90;;;3.00;67.60;;;;;;20972719;28;20203;-72
2023/04/06 06:25:52;;;;;;;25.27;12.70;;;3.20;67.50;;;;;;21001747;28;20694;-72
2023/04/06 06:35:54;;;;;;;29.03;12.60;;;3.50;67.20;;;;;;20999333;28;20610;-72
2023/04/06 06:45:56;;;;;;;26.30;12.03;;;4.00;67.00;;;;;;20976235;28;20667;-72
2023/04/06 06:55:57;;;;;;;81.10;35.40;;;4.30;66.70;;;;;;20975207;28;20293;-72
2023/04/06 07:05:59;;;;;;;44.17;19.07;;;4.50;66.20;;;;;;20926227;28;20286;-72
2023/04/06 07:16:01;;;;;;;32.37;16.07;;;4.90;65.70;;;;;;20916114;28;20204;-71
2023/04/06 07:26:03;;;;;;;47.03;21.83;;;;;;;;;;20951146;28;20292;-74
2023/04/06 07:36:05;;;;;;;25.23;13.17;;;5.60;64.00;;;;;;20964969;28;20200;-74
2023/04/06 07:46:06;;;;;;;16.67;10.63;;;5.90;62.60;;;;;;20914885;28;20235;-74
2023/04/06 07:56:08;;;;;;;16.50;10.33;;;6.20;61.40;;;;;;20972775;28;20203;-75
2023/04/06 08:06:10;;;;;;;15.90;11.50;;;6.60;60.50;;;;;;20994010;28;20723;-75
2023/04/06 08:16:12;;;;;;;20.20;10.93;;;6.90;59.80;;;;;;20994098;28;20204;-75
2023/04/06 08:26:13;;;;;;;16.50;11.40;;;7.20;59.10;;;;;;20971567;28;20233;-74
2023/04/06 08:36:16;;;;;;;57.33;27.73;;;7.50;58.40;;;;;;20910352;28;20669;-75
2023/04/06 08:46:18;;;;;;;17.07;10.83;;;7.80;57.80;;;;;;20909472;28;20284;-75
2023/04/06 16:49:59;;;;;;;8.17;5.80;;;15.90;29.90;;;;;;21067488;28;20566;-70
2023/04/06 17:00:07;;;;;;;10.27;6.80;;;15.40;30.30;;;;;;21067014;28;20571;-71
2023/04/06 17:10:09;;;;;;;9.23;6.67;;;15.00;30.80;;;;;;21066507;28;20214;-71
2023/04/06 17:20:11;;;;;;;12.37;7.33;;;14.50;31.30;;;;;;21064756;28;20256;-71
2023/04/06 17:30:13;;;;;;;10.07;7.30;;;14.10;31.70;;;;;;21064111;28;20221;-71
2023/04/06 17:40:18;;;;;;;10.67;7.23;;;13.80;32.20;;;;;;21063150;28;20222;-71
2023/04/06 17:50:20;;;;;;;14.10;7.60;;;13.50;32.70;;;;;;21062631;28;20208;-70
2023/04/06 18:00:23;;;;;;;13.30;7.60;;;13.30;33.10;;;;;;21011737;28;20235;-71
2023/04/06 18:10:25;;;;;;;10.30;7.23;;;13.20;33.60;;;;;;21006250;28;20217;-71
2023/04/06 18:20:27;;;;;;;10.77;7.10;;;12.90;33.90;;;;;;21005211;28;20292;-65
2023/04/06 18:30:28;;;;;;;11.83;7.57;;;12.80;34.20;;;;;;21004366;28;20206;-67
2023/04/06 18:40:38;;;;;;;11.33;7.43;;;12.70;34.70;;;;;;21003534;28;20231;-66
2023/04/06 18:50:39;;;;;;;12.87;7.30;;;12.60;34.70;;;;;;21002737;28;20210;-65
2023/04/06 19:00:41;;;;;;;11.93;8.13;;;12.50;34.60;;;;;;21001823;28;20242;-65
2023/04/06 19:10:43;;;;;;;12.23;7.47;;;13.50;35.90;;;;;;21000292;28;20211;-65
2023/04/06 19:20:45;;;;;;;11.23;6.83;;;12.20;34.20;;;;;;21000132;28;20683;-71
2023/04/06 19:30:46;;;;;;;11.13;6.70;;;12.00;34.80;;;;;;21000293;28;20270;-67
2023/04/06 19:40:48;;;;;;;10.20;7.00;;;11.90;35.00;;;;;;21000505;28;20579;-71
2023/04/06 19:50:54;;;;;;;11.10;7.03;;;11.90;35.40;;;;;;20997400;28;20202;-70
2023/04/06 20:00:56;;;;;;;12.00;7.37;;;11.70;36.30;;;;;;20996722;28;20725;-71
2023/04/06 20:11:02;;;;;;;13.13;8.50;;;11.60;36.90;;;;;;20996348;28;20214;-71
2023/04/06 20:21:04;;;;;;;13.13;8.10;;;11.50;37.10;;;;;;20995572;28;20295;-70
2023/04/06 20:31:06;;;;;;;12.60;8.00;;;11.50;36.90;;;;;;20995995;28;20210;-67
2023/04/06 20:41:09;;;;;;;14.70;7.73;;;11.40;37.20;;;;;;20995369;28;20235;-66
2023/04/06 20:51:19;;;;;;;11.97;7.67;;;11.40;37.70;;;;;;20994810;28;20252;-66
2023/04/06 21:01:21;;;;;;;18.37;8.10;;;11.30;39.30;;;;;;20993689;28;20661;-65
2023/04/06 21:11:23;;;;;;;13.30;8.50;;;11.20;40.70;;;;;;20993742;28;20210;-67
2023/04/06 21:21:24;;;;;;;10.33;6.17;;;11.00;41.10;;;;;;20993587;28;20582;-65
2023/04/06 21:31:26;;;;;;;10.83;6.83;;;11.00;41.10;;;;;;21000373;28;20257;-66
2023/04/06 21:41:28;;;;;;;5.93;3.87;;;11.00;41.40;;;;;;21007854;28;20253;-70
2023/04/06 21:58:20;;;;;;;4.60;3.13;;;11.00;42.40;;;;;;20984398;28;20564;-65
2023/04/06 22:08:22;;;;;;;4.30;2.70;;;10.90;43.80;;;;;;20983763;28;20206;-68
2023/04/06 22:18:35;;;;;;;4.13;3.17;;;10.90;46.00;;;;;;20982717;28;20212;-67
2023/04/06 22:28:39;;;;;;;6.73;3.90;;;10.80;47.60;;;;;;20981889;28;20316;-66
2023/04/06 22:38:43;;;;;;;7.13;3.57;;;10.80;48.50;;;;;;20981330;28;20213;-67
2023/04/06 22:48:44;;;;;;;7.10;4.00;;;10.70;49.50;;;;;;20979940;28;20706;-67
2023/04/06 22:58:46;;;;;;;7.37;4.27;;;10.60;50.80;;;;;;20979389;28;20255;-71
2023/04/06 23:08:48;;;;;;;5.40;4.30;;;10.60;51.50;;;;;;20929197;28;20635;-66
2023/04/06 23:18:49;;;;;;;7.67;4.57;;;10.60;52.00;;;;;;20923326;28;20664;-67
2023/04/06 23:28:51;;;;;;;8.93;5.13;;;10.60;52.60;;;;;;20922622;28;20372;-66
2023/04/06 23:38:55;;;;;;;9.67;5.30;;;10.60;53.30;;;;;;20921967;28;20263;-67
2023/04/06 23:48:57;;;;;;;8.33;5.07;;;;;;;;;;20920406;28;20583;-68
2023/04/06 23:58:59;;;;;;;9.30;5.60;;;;;;;;;;20919939;28;20263;-67
